SCRQ weather

Rucañanco Airport
Rio Bueno, Los Ríos Region, Chile

Public forecast

Using degrees Celsius for public forecast. Weather courtesy of forecast.io.

Closest aviation weather report (METAR) to Rucañanco Airport

Closest report is Cañal Bajo Carlos - Hott Siebert Airport, 14.2 nm (26.3 km) WSW. Retrieved 2019/10/21 18:00 UTC (54 minutes ago):

SCJO 211800Z 18007KT 9999 SCT035 14/05 Q1027

Closest aviation forecast (TAF) to Rucañanco Airport

Forecast is more than 6 hours old.

Closest forecast is Cañal Bajo Carlos - Hott Siebert Airport, 14.2 nm (26.3 km) WSW. Retrieved 2019/10/21 12:33 UTC (6 hours ago):

TAF SCJO 211005Z 2112/2124 VRB03KT 9999 SCT035 TN04/2112Z TX13/2118Z BECMG 2117/2119 20006KT